sensor_id;sensor_type;location;lat;lon;timestamp;temperature;humidity
12893;DHT22;6514;48.606;9.222;2022-09-03T00:00:17;17.40;99.90
12893;DHT22;6514;48.606;9.222;2022-09-03T00:02:51;17.30;99.90
12893;DHT22;6514;48.606;9.222;2022-09-03T00:05:23;17.30;99.90
12893;DHT22;6514;48.606;9.222;2022-09-03T00:07:56;17.20;99.90
12893;DHT22;6514;48.606;9.222;2022-09-03T00:10:31;17.20;99.90
12893;DHT22;6514;48.606;9.222;2022-09-03T00:13:04;17.10;99.90
12893;DHT22;6514;48.606;9.222;2022-09-03T00:15:33;17.00;99.90
12893;DHT22;6514;48.606;9.222;2022-09-03T00:18:05;17.00;99.90
12893;DHT22;6514;48.606;9.222;2022-09-03T00:20:37;16.90;99.90
12893;DHT22;6514;48.606;9.222;2022-09-03T00:23:06;16.90;99.90
12893;DHT22;6514;48.606;9.222;2022-09-03T00:25:38;16.90;99.90
12893;DHT22;6514;48.606;9.222;2022-09-03T00:28:10;16.80;99.90
12893;DHT22;6514;48.606;9.222;2022-09-03T00:30:40;16.80;99.90
12893;DHT22;6514;48.606;9.222;2022-09-03T00:33:14;16.70;99.90
12893;DHT22;6514;48.606;9.222;2022-09-03T00:35:47;16.60;99.90
12893;DHT22;6514;48.606;9.222;2022-09-03T00:38:16;16.60;99.90
12893;DHT22;6514;48.606;9.222;2022-09-03T00:40:55;16.60;99.90
12893;DHT22;6514;48.606;9.222;2022-09-03T00:43:39;16.50;99.90
12893;DHT22;6514;48.606;9.222;2022-09-03T00:46:18;16.50;99.90
12893;DHT22;6514;48.606;9.222;2022-09-03T00:49:06;16.40;99.90
12893;DHT22;6514;48.606;9.222;2022-09-03T00:51:43;16.40;99.90
12893;DHT22;6514;48.606;9.222;2022-09-03T00:54:19;16.30;99.90
12893;DHT22;6514;48.606;9.222;2022-09-03T00:57:00;16.30;99.90
12893;DHT22;6514;48.606;9.222;2022-09-03T00:59:34;16.30;99.90
12893;DHT22;6514;48.606;9.222;2022-09-03T01:02:11;16.30;99.90
12893;DHT22;6514;48.606;9.222;2022-09-03T01:04:51;16.30;99.90
12893;DHT22;6514;48.606;9.222;2022-09-03T01:07:32;16.20;99.90
12893;DHT22;6514;48.606;9.222;2022-09-03T01:10:07;16.20;99.90
12893;DHT22;6514;48.606;9.222;2022-09-03T01:12:49;16.20;99.90
12893;DHT22;6514;48.606;9.222;2022-09-03T01:15:22;16.20;99.90
12893;DHT22;6514;48.606;9.222;2022-09-03T01:18:01;16.20;99.90
12893;DHT22;6514;48.606;9.222;2022-09-03T01:20:39;16.10;99.90
12893;DHT22;6514;48.606;9.222;2022-09-03T01:23:37;16.10;99.90
12893;DHT22;6514;48.606;9.222;2022-09-03T01:26:34;16.10;99.90
12893;DHT22;6514;48.606;9.222;2022-09-03T01:29:13;16.00;99.90
12893;DHT22;6514;48.606;9.222;2022-09-03T01:31:52;16.00;99.90
12893;DHT22;6514;48.606;9.222;2022-09-03T01:34:30;16.00;99.90
12893;DHT22;6514;48.606;9.222;2022-09-03T01:37:07;15.90;99.90
12893;DHT22;6514;48.606;9.222;2022-09-03T01:39:46;15.90;99.90
12893;DHT22;6514;48.606;9.222;2022-09-03T01:42:24;15.90;99.90
12893;DHT22;6514;48.606;9.222;2022-09-03T01:45:06;15.90;99.90
12893;DHT22;6514;48.606;9.222;2022-09-03T01:47:46;15.80;99.90
12893;DHT22;6514;48.606;9.222;2022-09-03T01:50:24;15.80;99.90
12893;DHT22;6514;48.606;9.222;2022-09-03T01:52:55;15.80;99.90
12893;DHT22;6514;48.606;9.222;2022-09-03T01:55:31;15.80;99.90
12893;DHT22;6514;48.606;9.222;2022-09-03T01:58:02;15.80;99.90
12893;DHT22;6514;48.606;9.222;2022-09-03T02:00:33;15.80;99.90
12893;DHT22;6514;48.606;9.222;2022-09-03T02:03:06;15.80;99.90
12893;DHT22;6514;48.606;9.222;2022-09-03T02:05:34;15.80;99.90
12893;DHT22;6514;48.606;9.222;2022-09-03T02:08:03;15.80;99.90
12893;DHT22;6514;48.606;9.222;2022-09-03T02:10:33;15.80;99.90
12893;DHT22;6514;48.606;9.222;2022-09-03T02:13:06;15.80;99.90
12893;DHT22;6514;48.606;9.222;2022-09-03T02:15:38;15.80;99.90
12893;DHT22;6514;48.606;9.222;2022-09-03T02:18:09;15.80;99.90
12893;DHT22;6514;48.606;9.222;2022-09-03T02:20:39;15.80;99.90
12893;DHT22;6514;48.606;9.222;2022-09-03T02:23:06;15.80;99.90
12893;DHT22;6514;48.606;9.222;2022-09-03T02:25:35;15.80;99.90
12893;DHT22;6514;48.606;9.222;2022-09-03T02:28:04;15.80;99.90
12893;DHT22;6514;48.606;9.222;2022-09-03T02:30:32;15.80;99.90
12893;DHT22;6514;48.606;9.222;2022-09-03T02:33:00;15.90;99.90
12893;DHT22;6514;48.606;9.222;2022-09-03T02:35:27;15.90;99.90
12893;DHT22;6514;48.606;9.222;2022-09-03T02:37:54;15.90;99.90
12893;DHT22;6514;48.606;9.222;2022-09-03T02:40:21;15.90;99.90
12893;DHT22;6514;48.606;9.222;2022-09-03T02:42:49;15.90;99.90
12893;DHT22;6514;48.606;9.222;2022-09-03T02:45:23;15.80;99.90
12893;DHT22;6514;48.606;9.222;2022-09-03T02:47:54;15.80;99.90
12893;DHT22;6514;48.606;9.222;2022-09-03T02:50:24;15.70;99.90
12893;DHT22;6514;48.606;9.222;2022-09-03T02:52:51;15.70;99.90
12893;DHT22;6514;48.606;9.222;2022-09-03T02:55:19;15.60;99.90
12893;DHT22;6514;48.606;9.222;2022-09-03T02:57:46;15.50;99.90
12893;DHT22;6514;48.606;9.222;2022-09-03T03:00:13;15.40;99.90
12893;DHT22;6514;48.606;9.222;2022-09-03T03:02:41;15.40;99.90
12893;DHT22;6514;48.606;9.222;2022-09-03T03:05:10;15.30;99.90
12893;DHT22;6514;48.606;9.222;2022-09-03T03:07:42;15.30;99.90
12893;DHT22;6514;48.606;9.222;2022-09-03T03:10:09;15.30;99.90
12893;DHT22;6514;48.606;9.222;2022-09-03T03:12:37;15.20;99.90
12893;DHT22;6514;48.606;9.222;2022-09-03T03:15:05;15.20;99.90
12893;DHT22;6514;48.606;9.222;2022-09-03T03:17:32;15.10;99.90
12893;DHT22;6514;48.606;9.222;2022-09-03T03:19:59;15.10;99.90
12893;DHT22;6514;48.606;9.222;2022-09-03T03:22:26;15.00;99.90
12893;DHT22;6514;48.606;9.222;2022-09-03T03:24:55;14.80;99.90
12893;DHT22;6514;48.606;9.222;2022-09-03T03:27:22;14.80;99.90
12893;DHT22;6514;48.606;9.222;2022-09-03T03:29:50;14.70;99.90
12893;DHT22;6514;48.606;9.222;2022-09-03T03:32:17;14.60;99.90
12893;DHT22;6514;48.606;9.222;2022-09-03T03:34:44;14.60;99.90
12893;DHT22;6514;48.606;9.222;2022-09-03T03:37:11;14.60;99.90
12893;DHT22;6514;48.606;9.222;2022-09-03T03:39:38;14.60;99.90
12893;DHT22;6514;48.606;9.222;2022-09-03T03:42:06;14.60;99.90
12893;DHT22;6514;48.606;9.222;2022-09-03T03:44:34;14.60;99.90
12893;DHT22;6514;48.606;9.222;2022-09-03T03:47:01;14.60;99.90
12893;DHT22;6514;48.606;9.222;2022-09-03T03:49:30;14.70;99.90
12893;DHT22;6514;48.606;9.222;2022-09-03T03:51:57;14.80;99.90
12893;DHT22;6514;48.606;9.222;2022-09-03T03:54:24;14.80;99.90
12893;DHT22;6514;48.606;9.222;2022-09-03T03:56:51;14.90;99.90
12893;DHT22;6514;48.606;9.222;2022-09-03T03:59:20;15.00;99.90
12893;DHT22;6514;48.606;9.222;2022-09-03T04:01:47;15.00;99.90
12893;DHT22;6514;48.606;9.222;2022-09-03T04:04:15;15.10;99.90
12893;DHT22;6514;48.606;9.222;2022-09-03T04:06:42;15.10;99.90
12893;DHT22;6514;48.606;9.222;2022-09-03T04:09:09;15.10;99.90
12893;DHT22;6514;48.606;9.222;2022-09-03T04:11:36;15.20;99.90
12893;DHT22;6514;48.606;9.222;2022-09-03T04:14:04;15.20;99.90
12893;DHT22;6514;48.606;9.222;2022-09-03T04:16:32;15.30;99.90
12893;DHT22;6514;48.606;9.222;2022-09-03T04:19:00;15.30;99.90
12893;DHT22;6514;48.606;9.222;2022-09-03T04:21:28;15.30;99.90
12893;DHT22;6514;48.606;9.222;2022-09-03T04:23:56;15.30;99.90
12893;DHT22;6514;48.606;9.222;2022-09-03T04:26:26;15.30;99.90
12893;DHT22;6514;48.606;9.222;2022-09-03T04:28:56;15.40;99.90
12893;DHT22;6514;48.606;9.222;2022-09-03T04:31:23;15.40;99.90
12893;DHT22;6514;48.606;9.222;2022-09-03T04:33:51;15.40;99.90
12893;DHT22;6514;48.606;9.222;2022-09-03T04:36:20;15.40;99.90
12893;DHT22;6514;48.606;9.222;2022-09-03T04:38:49;15.40;99.90
12893;DHT22;6514;48.606;9.222;2022-09-03T04:41:18;15.40;99.90
12893;DHT22;6514;48.606;9.222;2022-09-03T04:43:46;15.50;99.90
12893;DHT22;6514;48.606;9.222;2022-09-03T04:46:14;15.40;99.90
12893;DHT22;6514;48.606;9.222;2022-09-03T04:48:42;15.40;99.90
12893;DHT22;6514;48.606;9.222;2022-09-03T04:51:11;15.40;99.90
12893;DHT22;6514;48.606;9.222;2022-09-03T04:53:40;15.50;99.90
12893;DHT22;6514;48.606;9.222;2022-09-03T04:56:12;15.50;99.90
12893;DHT22;6514;48.606;9.222;2022-09-03T04:58:39;15.50;99.90
12893;DHT22;6514;48.606;9.222;2022-09-03T05:01:09;15.50;99.90
12893;DHT22;6514;48.606;9.222;2022-09-03T05:03:36;15.50;99.90
12893;DHT22;6514;48.606;9.222;2022-09-03T05:06:04;15.60;99.90
12893;DHT22;6514;48.606;9.222;2022-09-03T05:08:33;15.60;99.90
12893;DHT22;6514;48.606;9.222;2022-09-03T05:11:01;15.70;99.90
12893;DHT22;6514;48.606;9.222;2022-09-03T05:13:29;15.60;99.90
12893;DHT22;6514;48.606;9.222;2022-09-03T05:15:58;15.70;99.90
12893;DHT22;6514;48.606;9.222;2022-09-03T05:18:26;15.70;99.90
12893;DHT22;6514;48.606;9.222;2022-09-03T05:20:57;15.70;99.90
12893;DHT22;6514;48.606;9.222;2022-09-03T05:23:25;15.70;99.90
12893;DHT22;6514;48.606;9.222;2022-09-03T05:25:57;15.70;99.90
12893;DHT22;6514;48.606;9.222;2022-09-03T05:28:25;15.80;99.90
12893;DHT22;6514;48.606;9.222;2022-09-03T05:31:00;15.80;99.90
12893;DHT22;6514;48.606;9.222;2022-09-03T05:33:27;15.90;99.90
12893;DHT22;6514;48.606;9.222;2022-09-03T05:35:54;15.90;99.90
12893;DHT22;6514;48.606;9.222;2022-09-03T05:38:26;16.00;99.90
12893;DHT22;6514;48.606;9.222;2022-09-03T05:40:53;16.10;99.90
12893;DHT22;6514;48.606;9.222;2022-09-03T05:43:21;16.10;99.90
12893;DHT22;6514;48.606;9.222;2022-09-03T05:45:48;16.20;99.90
12893;DHT22;6514;48.606;9.222;2022-09-03T05:48:15;16.30;99.90
12893;DHT22;6514;48.606;9.222;2022-09-03T05:50:42;16.40;99.90
12893;DHT22;6514;48.606;9.222;2022-09-03T05:53:09;16.50;99.90
12893;DHT22;6514;48.606;9.222;2022-09-03T05:55:36;16.60;99.90
12893;DHT22;6514;48.606;9.222;2022-09-03T05:58:03;16.70;99.90
12893;DHT22;6514;48.606;9.222;2022-09-03T06:00:31;16.70;99.90
12893;DHT22;6514;48.606;9.222;2022-09-03T06:02:58;16.80;99.90
12893;DHT22;6514;48.606;9.222;2022-09-03T06:05:26;16.90;99.90
12893;DHT22;6514;48.606;9.222;2022-09-03T06:07:52;16.90;99.90
12893;DHT22;6514;48.606;9.222;2022-09-03T06:10:19;16.90;99.90
12893;DHT22;6514;48.606;9.222;2022-09-03T06:12:50;17.00;99.90
12893;DHT22;6514;48.606;9.222;2022-09-03T06:15:17;17.10;99.90
12893;DHT22;6514;48.606;9.222;2022-09-03T06:17:46;17.10;99.90
12893;DHT22;6514;48.606;9.222;2022-09-03T06:20:13;17.10;99.90
12893;DHT22;6514;48.606;9.222;2022-09-03T06:22:39;17.20;99.90
12893;DHT22;6514;48.606;9.222;2022-09-03T06:25:07;17.20;99.90
12893;DHT22;6514;48.606;9.222;2022-09-03T06:27:35;17.20;99.90
12893;DHT22;6514;48.606;9.222;2022-09-03T06:30:03;17.20;99.90
12893;DHT22;6514;48.606;9.222;2022-09-03T06:32:31;17.30;99.90
12893;DHT22;6514;48.606;9.222;2022-09-03T06:35:00;17.30;99.90
12893;DHT22;6514;48.606;9.222;2022-09-03T06:37:27;17.40;99.90
12893;DHT22;6514;48.606;9.222;2022-09-03T06:39:54;17.50;99.90
12893;DHT22;6514;48.606;9.222;2022-09-03T06:42:21;17.50;99.90
12893;DHT22;6514;48.606;9.222;2022-09-03T06:44:48;17.60;99.90
12893;DHT22;6514;48.606;9.222;2022-09-03T06:47:15;17.70;99.90
12893;DHT22;6514;48.606;9.222;2022-09-03T06:49:45;17.90;99.90
12893;DHT22;6514;48.606;9.222;2022-09-03T06:52:13;18.10;99.90
12893;DHT22;6514;48.606;9.222;2022-09-03T06:54:40;18.20;99.90
12893;DHT22;6514;48.606;9.222;2022-09-03T06:57:07;18.30;99.90
12893;DHT22;6514;48.606;9.222;2022-09-03T06:59:34;18.40;99.90
12893;DHT22;6514;48.606;9.222;2022-09-03T07:02:01;18.40;99.90
12893;DHT22;6514;48.606;9.222;2022-09-03T07:04:28;18.40;99.90
12893;DHT22;6514;48.606;9.222;2022-09-03T07:06:55;18.40;99.90
12893;DHT22;6514;48.606;9.222;2022-09-03T07:09:24;18.40;99.90
12893;DHT22;6514;48.606;9.222;2022-09-03T07:11:51;18.40;99.90
12893;DHT22;6514;48.606;9.222;2022-09-03T07:14:19;18.40;99.90
12893;DHT22;6514;48.606;9.222;2022-09-03T07:16:47;18.40;99.90
12893;DHT22;6514;48.606;9.222;2022-09-03T07:19:15;18.40;99.90
12893;DHT22;6514;48.606;9.222;2022-09-03T07:21:43;18.50;99.90
12893;DHT22;6514;48.606;9.222;2022-09-03T07:24:11;18.60;99.90
12893;DHT22;6514;48.606;9.222;2022-09-03T07:26:40;18.60;99.90
12893;DHT22;6514;48.606;9.222;2022-09-03T07:29:09;18.60;99.90
12893;DHT22;6514;48.606;9.222;2022-09-03T07:31:38;18.60;99.90
12893;DHT22;6514;48.606;9.222;2022-09-03T07:34:07;18.70;99.90
12893;DHT22;6514;48.606;9.222;2022-09-03T07:36:36;18.70;99.90
12893;DHT22;6514;48.606;9.222;2022-09-03T07:39:05;18.70;99.90
12893;DHT22;6514;48.606;9.222;2022-09-03T07:41:32;18.80;99.90
12893;DHT22;6514;48.606;9.222;2022-09-03T07:44:01;18.80;99.90
12893;DHT22;6514;48.606;9.222;2022-09-03T07:46:31;18.90;99.90
12893;DHT22;6514;48.606;9.222;2022-09-03T07:48:59;19.00;99.90
12893;DHT22;6514;48.606;9.222;2022-09-03T07:51:28;19.20;99.90
12893;DHT22;6514;48.606;9.222;2022-09-03T07:53:57;19.50;99.90
12893;DHT22;6514;48.606;9.222;2022-09-03T07:56:25;19.90;99.90
12893;DHT22;6514;48.606;9.222;2022-09-03T07:58:52;20.30;99.90
12893;DHT22;6514;48.606;9.222;2022-09-03T08:01:24;20.60;99.90
12893;DHT22;6514;48.606;9.222;2022-09-03T08:03:53;20.90;99.90
12893;DHT22;6514;48.606;9.222;2022-09-03T08:06:21;21.10;99.90
12893;DHT22;6514;48.606;9.222;2022-09-03T08:08:53;21.20;99.90
12893;DHT22;6514;48.606;9.222;2022-09-03T08:11:21;21.40;99.90
12893;DHT22;6514;48.606;9.222;2022-09-03T08:13:54;21.50;99.90
12893;DHT22;6514;48.606;9.222;2022-09-03T08:16:28;21.60;99.90
12893;DHT22;6514;48.606;9.222;2022-09-03T08:18:55;21.60;99.90
12893;DHT22;6514;48.606;9.222;2022-09-03T08:21:23;21.60;99.90
12893;DHT22;6514;48.606;9.222;2022-09-03T08:23:53;21.60;99.90
12893;DHT22;6514;48.606;9.222;2022-09-03T08:26:21;21.50;99.90
12893;DHT22;6514;48.606;9.222;2022-09-03T08:28:51;21.40;99.90
12893;DHT22;6514;48.606;9.222;2022-09-03T08:31:20;21.60;99.90
12893;DHT22;6514;48.606;9.222;2022-09-03T08:33:50;22.20;99.90
12893;DHT22;6514;48.606;9.222;2022-09-03T08:36:18;22.70;99.90
12893;DHT22;6514;48.606;9.222;2022-09-03T08:38:48;23.10;99.90
12893;DHT22;6514;48.606;9.222;2022-09-03T08:41:22;23.70;99.90
12893;DHT22;6514;48.606;9.222;2022-09-03T08:44:13;24.10;99.90
12893;DHT22;6514;48.606;9.222;2022-09-03T08:46:47;24.70;99.90
12893;DHT22;6514;48.606;9.222;2022-09-03T08:49:22;24.80;99.90
12893;DHT22;6514;48.606;9.222;2022-09-03T08:51:54;24.90;99.90
12893;DHT22;6514;48.606;9.222;2022-09-03T08:54:25;25.20;99.90
12893;DHT22;6514;48.606;9.222;2022-09-03T08:56:53;25.70;99.90
12893;DHT22;6514;48.606;9.222;2022-09-03T08:59:21;26.10;99.90
12893;DHT22;6514;48.606;9.222;2022-09-03T09:01:54;26.10;99.90
12893;DHT22;6514;48.606;9.222;2022-09-03T09:04:38;26.30;99.90
12893;DHT22;6514;48.606;9.222;2022-09-03T09:07:16;26.20;99.90
12893;DHT22;6514;48.606;9.222;2022-09-03T09:09:52;26.30;99.90
12893;DHT22;6514;48.606;9.222;2022-09-03T09:12:30;26.50;99.90
12893;DHT22;6514;48.606;9.222;2022-09-03T09:15:07;26.50;99.90
12893;DHT22;6514;48.606;9.222;2022-09-03T09:17:53;26.50;99.90
12893;DHT22;6514;48.606;9.222;2022-09-03T09:20:30;27.20;99.90
12893;DHT22;6514;48.606;9.222;2022-09-03T09:23:00;27.80;99.90
12893;DHT22;6514;48.606;9.222;2022-09-03T09:25:28;28.10;99.90
12893;DHT22;6514;48.606;9.222;2022-09-03T09:27:59;28.10;99.90
12893;DHT22;6514;48.606;9.222;2022-09-03T09:30:28;28.20;99.90
12893;DHT22;6514;48.606;9.222;2022-09-03T09:32:55;28.20;99.90
12893;DHT22;6514;48.606;9.222;2022-09-03T09:35:22;28.10;99.90
12893;DHT22;6514;48.606;9.222;2022-09-03T09:37:52;28.00;99.90
12893;DHT22;6514;48.606;9.222;2022-09-03T09:40:26;27.90;99.90
12893;DHT22;6514;48.606;9.222;2022-09-03T09:43:06;27.60;99.90
12893;DHT22;6514;48.606;9.222;2022-09-03T09:45:35;27.50;99.90
12893;DHT22;6514;48.606;9.222;2022-09-03T09:48:09;27.70;99.90
12893;DHT22;6514;48.606;9.222;2022-09-03T09:50:39;28.00;99.90
12893;DHT22;6514;48.606;9.222;2022-09-03T09:53:09;28.60;99.90
12893;DHT22;6514;48.606;9.222;2022-09-03T09:55:54;28.70;99.90
12893;DHT22;6514;48.606;9.222;2022-09-03T09:58:22;29.00;99.90
12893;DHT22;6514;48.606;9.222;2022-09-03T10:00:58;29.20;99.90
12893;DHT22;6514;48.606;9.222;2022-09-03T10:03:27;29.40;99.90
12893;DHT22;6514;48.606;9.222;2022-09-03T10:06:07;29.40;99.90
12893;DHT22;6514;48.606;9.222;2022-09-03T10:09:05;29.60;99.90
12893;DHT22;6514;48.606;9.222;2022-09-03T10:11:33;29.70;99.90
12893;DHT22;6514;48.606;9.222;2022-09-03T10:14:02;29.60;99.90
12893;DHT22;6514;48.606;9.222;2022-09-03T10:16:34;29.50;99.90
12893;DHT22;6514;48.606;9.222;2022-09-03T10:19:05;29.80;99.90
12893;DHT22;6514;48.606;9.222;2022-09-03T10:21:40;29.70;99.90
12893;DHT22;6514;48.606;9.222;2022-09-03T10:24:30;29.20;99.90
12893;DHT22;6514;48.606;9.222;2022-09-03T10:27:07;28.60;99.90
12893;DHT22;6514;48.606;9.222;2022-09-03T10:29:39;28.30;99.90
12893;DHT22;6514;48.606;9.222;2022-09-03T10:32:19;28.00;99.90
12893;DHT22;6514;48.606;9.222;2022-09-03T10:34:57;27.40;99.90
12893;DHT22;6514;48.606;9.222;2022-09-03T10:37:34;26.70;99.90
12893;DHT22;6514;48.606;9.222;2022-09-03T10:40:16;26.30;99.90
12893;DHT22;6514;48.606;9.222;2022-09-03T10:42:53;25.90;99.90
12893;DHT22;6514;48.606;9.222;2022-09-03T10:45:31;25.50;99.90
12893;DHT22;6514;48.606;9.222;2022-09-03T10:48:26;25.20;99.90
12893;DHT22;6514;48.606;9.222;2022-09-03T10:51:00;25.00;99.90
12893;DHT22;6514;48.606;9.222;2022-09-03T10:53:41;25.10;99.90
12893;DHT22;6514;48.606;9.222;2022-09-03T10:56:15;25.10;99.90
12893;DHT22;6514;48.606;9.222;2022-09-03T10:58:53;25.20;99.90
12893;DHT22;6514;48.606;9.222;2022-09-03T11:01:30;25.30;99.90
12893;DHT22;6514;48.606;9.222;2022-09-03T11:04:21;25.40;99.90
12893;DHT22;6514;48.606;9.222;2022-09-03T11:06:53;25.10;99.90
12893;DHT22;6514;48.606;9.222;2022-09-03T11:09:23;25.00;99.90
12893;DHT22;6514;48.606;9.222;2022-09-03T11:11:56;24.80;99.90
12893;DHT22;6514;48.606;9.222;2022-09-03T11:14:31;24.70;99.90
12893;DHT22;6514;48.606;9.222;2022-09-03T11:17:05;24.70;99.90
12893;DHT22;6514;48.606;9.222;2022-09-03T11:19:41;24.60;99.90
12893;DHT22;6514;48.606;9.222;2022-09-03T11:22:13;24.60;99.90
12893;DHT22;6514;48.606;9.222;2022-09-03T11:24:43;24.50;99.90
12893;DHT22;6514;48.606;9.222;2022-09-03T11:27:21;24.40;99.90
12893;DHT22;6514;48.606;9.222;2022-09-03T11:29:56;24.30;99.90
12893;DHT22;6514;48.606;9.222;2022-09-03T11:32:32;24.00;99.90
12893;DHT22;6514;48.606;9.222;2022-09-03T11:35:00;23.60;99.90
12893;DHT22;6514;48.606;9.222;2022-09-03T11:37:28;23.30;99.90
12893;DHT22;6514;48.606;9.222;2022-09-03T11:40:02;23.10;99.90
12893;DHT22;6514;48.606;9.222;2022-09-03T11:42:34;22.80;99.90
12893;DHT22;6514;48.606;9.222;2022-09-03T11:45:23;22.40;99.90
12893;DHT22;6514;48.606;9.222;2022-09-03T11:47:59;22.20;99.90
12893;DHT22;6514;48.606;9.222;2022-09-03T11:50:28;22.00;99.90
12893;DHT22;6514;48.606;9.222;2022-09-03T11:53:08;21.80;99.90
12893;DHT22;6514;48.606;9.222;2022-09-03T11:55:51;21.60;99.90
12893;DHT22;6514;48.606;9.222;2022-09-03T11:58:24;21.40;99.90
12893;DHT22;6514;48.606;9.222;2022-09-03T12:00:52;21.20;99.90
12893;DHT22;6514;48.606;9.222;2022-09-03T12:03:25;20.90;99.90
12893;DHT22;6514;48.606;9.222;2022-09-03T12:06:07;20.30;99.90
12893;DHT22;6514;48.606;9.222;2022-09-03T12:11:54;19.10;99.90
12893;DHT22;6514;48.606;9.222;2022-09-03T12:14:31;18.40;99.90
12893;DHT22;6514;48.606;9.222;2022-09-03T12:17:14;17.80;99.90
12893;DHT22;6514;48.606;9.222;2022-09-03T12:19:50;17.50;99.90
12893;DHT22;6514;48.606;9.222;2022-09-03T12:22:20;17.10;99.90
12893;DHT22;6514;48.606;9.222;2022-09-03T12:24:47;17.00;99.90
12893;DHT22;6514;48.606;9.222;2022-09-03T12:27:18;16.90;99.90
12893;DHT22;6514;48.606;9.222;2022-09-03T12:29:55;16.80;99.90
12893;DHT22;6514;48.606;9.222;2022-09-03T12:32:26;16.80;99.90
12893;DHT22;6514;48.606;9.222;2022-09-03T12:34:55;16.70;99.90
12893;DHT22;6514;48.606;9.222;2022-09-03T12:37:24;16.40;99.90
12893;DHT22;6514;48.606;9.222;2022-09-03T12:39:53;16.70;99.90
12893;DHT22;6514;48.606;9.222;2022-09-03T12:42:23;16.70;99.90
12893;DHT22;6514;48.606;9.222;2022-09-03T12:44:53;16.80;99.90
12893;DHT22;6514;48.606;9.222;2022-09-03T12:47:21;16.80;99.90
12893;DHT22;6514;48.606;9.222;2022-09-03T12:49:50;16.70;99.90
12893;DHT22;6514;48.606;9.222;2022-09-03T12:52:19;16.70;99.90
12893;DHT22;6514;48.606;9.222;2022-09-03T12:54:53;16.80;99.90
12893;DHT22;6514;48.606;9.222;2022-09-03T12:57:25;16.90;99.90
12893;DHT22;6514;48.606;9.222;2022-09-03T12:59:58;16.90;99.90
12893;DHT22;6514;48.606;9.222;2022-09-03T13:02:29;17.00;99.90
12893;DHT22;6514;48.606;9.222;2022-09-03T13:05:01;17.00;99.90
12893;DHT22;6514;48.606;9.222;2022-09-03T13:07:30;17.20;99.90
12893;DHT22;6514;48.606;9.222;2022-09-03T13:10:02;17.20;99.90
12893;DHT22;6514;48.606;9.222;2022-09-03T13:12:33;17.30;99.90
12893;DHT22;6514;48.606;9.222;2022-09-03T13:15:15;17.50;99.90
12893;DHT22;6514;48.606;9.222;2022-09-03T13:17:56;17.50;99.90
12893;DHT22;6514;48.606;9.222;2022-09-03T13:20:32;17.60;99.90
12893;DHT22;6514;48.606;9.222;2022-09-03T13:23:09;17.70;99.90
12893;DHT22;6514;48.606;9.222;2022-09-03T13:25:47;17.80;99.90
12893;DHT22;6514;48.606;9.222;2022-09-03T13:28:29;18.00;99.90
12893;DHT22;6514;48.606;9.222;2022-09-03T13:31:17;18.30;99.90
12893;DHT22;6514;48.606;9.222;2022-09-03T13:33:50;18.50;99.90
12893;DHT22;6514;48.606;9.222;2022-09-03T13:36:22;18.90;99.90
12893;DHT22;6514;48.606;9.222;2022-09-03T13:38:55;19.20;99.90
12893;DHT22;6514;48.606;9.222;2022-09-03T13:41:31;19.80;99.90
12893;DHT22;6514;48.606;9.222;2022-09-03T13:44:05;20.40;99.90
12893;DHT22;6514;48.606;9.222;2022-09-03T13:46:40;20.90;99.90
12893;DHT22;6514;48.606;9.222;2022-09-03T13:49:22;21.30;99.90
12893;DHT22;6514;48.606;9.222;2022-09-03T13:52:15;21.40;99.90
12893;DHT22;6514;48.606;9.222;2022-09-03T13:54:51;21.20;99.90
12893;DHT22;6514;48.606;9.222;2022-09-03T13:57:28;21.30;99.90
12893;DHT22;6514;48.606;9.222;2022-09-03T14:00:00;21.30;99.90
12893;DHT22;6514;48.606;9.222;2022-09-03T14:02:42;21.10;99.90
12893;DHT22;6514;48.606;9.222;2022-09-03T14:05:13;20.90;99.90
12893;DHT22;6514;48.606;9.222;2022-09-03T14:07:57;20.80;99.90
12893;DHT22;6514;48.606;9.222;2022-09-03T14:10:35;20.80;99.90
12893;DHT22;6514;48.606;9.222;2022-09-03T14:13:11;20.90;99.90
12893;DHT22;6514;48.606;9.222;2022-09-03T14:15:43;21.20;99.90
12893;DHT22;6514;48.606;9.222;2022-09-03T14:18:29;21.20;99.90
12893;DHT22;6514;48.606;9.222;2022-09-03T14:21:03;21.20;99.90
12893;DHT22;6514;48.606;9.222;2022-09-03T14:23:39;21.20;99.90
12893;DHT22;6514;48.606;9.222;2022-09-03T14:26:15;21.40;99.90
12893;DHT22;6514;48.606;9.222;2022-09-03T14:28:46;21.40;99.90
12893;DHT22;6514;48.606;9.222;2022-09-03T14:31:22;21.30;99.90
12893;DHT22;6514;48.606;9.222;2022-09-03T14:33:59;21.60;99.90
12893;DHT22;6514;48.606;9.222;2022-09-03T14:36:32;22.00;99.90
12893;DHT22;6514;48.606;9.222;2022-09-03T14:39:19;22.40;99.90
12893;DHT22;6514;48.606;9.222;2022-09-03T14:41:56;22.90;99.90
12893;DHT22;6514;48.606;9.222;2022-09-03T14:44:56;23.40;99.90
12893;DHT22;6514;48.606;9.222;2022-09-03T14:47:37;23.60;99.90
12893;DHT22;6514;48.606;9.222;2022-09-03T14:50:34;23.90;99.90
12893;DHT22;6514;48.606;9.222;2022-09-03T14:53:25;23.80;99.90
12893;DHT22;6514;48.606;9.222;2022-09-03T14:56:09;23.60;99.90
12893;DHT22;6514;48.606;9.222;2022-09-03T14:59:01;23.30;99.90
12893;DHT22;6514;48.606;9.222;2022-09-03T15:01:32;23.10;99.90
12893;DHT22;6514;48.606;9.222;2022-09-03T15:04:23;22.90;99.90
12893;DHT22;6514;48.606;9.222;2022-09-03T15:09:56;22.80;99.90
12893;DHT22;6514;48.606;9.222;2022-09-03T15:12:33;22.80;99.90
12893;DHT22;6514;48.606;9.222;2022-09-03T15:15:09;22.90;99.90
12893;DHT22;6514;48.606;9.222;2022-09-03T15:17:49;23.10;99.90
12893;DHT22;6514;48.606;9.222;2022-09-03T15:20:25;23.30;99.90
12893;DHT22;6514;48.606;9.222;2022-09-03T15:26:20;24.10;99.90
12893;DHT22;6514;48.606;9.222;2022-09-03T15:29:05;24.50;99.90
12893;DHT22;6514;48.606;9.222;2022-09-03T15:31:44;24.70;99.90
12893;DHT22;6514;48.606;9.222;2022-09-03T15:34:23;24.90;99.90
12893;DHT22;6514;48.606;9.222;2022-09-03T15:36:57;24.70;99.90
12893;DHT22;6514;48.606;9.222;2022-09-03T15:39:29;24.20;99.90
12893;DHT22;6514;48.606;9.222;2022-09-03T15:41:59;23.50;99.90
12893;DHT22;6514;48.606;9.222;2022-09-03T15:44:34;23.20;99.90
12893;DHT22;6514;48.606;9.222;2022-09-03T15:47:04;22.90;99.90
12893;DHT22;6514;48.606;9.222;2022-09-03T15:49:45;22.70;99.90
12893;DHT22;6514;48.606;9.222;2022-09-03T15:52:27;22.50;99.90
12893;DHT22;6514;48.606;9.222;2022-09-03T15:55:01;22.20;99.90
12893;DHT22;6514;48.606;9.222;2022-09-03T15:57:36;22.10;99.90
12893;DHT22;6514;48.606;9.222;2022-09-03T16:00:07;22.00;99.90
12893;DHT22;6514;48.606;9.222;2022-09-03T16:02:41;22.00;99.90
12893;DHT22;6514;48.606;9.222;2022-09-03T16:05:13;22.00;99.90
12893;DHT22;6514;48.606;9.222;2022-09-03T16:07:57;22.00;99.90
12893;DHT22;6514;48.606;9.222;2022-09-03T16:10:54;22.20;99.90
12893;DHT22;6514;48.606;9.222;2022-09-03T16:13:46;22.40;99.90
12893;DHT22;6514;48.606;9.222;2022-09-03T16:16:18;22.30;99.90
12893;DHT22;6514;48.606;9.222;2022-09-03T16:18:57;22.10;99.90
12893;DHT22;6514;48.606;9.222;2022-09-03T16:21:31;21.90;99.90
12893;DHT22;6514;48.606;9.222;2022-09-03T16:24:04;21.80;99.90
12893;DHT22;6514;48.606;9.222;2022-09-03T16:26:40;21.60;99.90
12893;DHT22;6514;48.606;9.222;2022-09-03T16:29:14;21.40;99.90